MUGM/NBW METAR and TAF weather

Enter ICAO airport designator
Station Type Date Time Source
MUGM METAR 2022/05/24 11:51 UTC NOAA

MUGM 241151Z 33007KT 10SM FEW030 SCT250 26/22 A2998 RMK AO2 SLP152 70027 T02560222 10256 20233 53009 $


Station Type Date Time Source
MUGM Decoded METAR 2022/05/24 11:51 UTC NOAA

GUANTANAMO BAY, CUBA NAVAL, CU, Cuba (MUGM) 19-55N 075-12W 23M
May 24, 2022 - 07:51 AM EDT / 2022.05.24 1151 UTC
Wind: from the NNW (330 degrees) at 8 MPH (7 KT):0
Visibility: 10 mile(s):0
Sky conditions: partly cloudy
Temperature: 78.1 F (25.6 C)
Dew Point: 72.0 F (22.2 C)
Relative Humidity: 81%
Pressure (altimeter): 29.98 in. Hg (1015 hPa)
Pressure tendency: 0.03 inches (0.9 hPa) higher than three hours ago
ob: MUGM 241151Z 33007KT 10SM FEW030 SCT250 26/22 A2998 RMK AO2 SLP152 70027 T02560222 10256 20233 53009
cycle: 12

Station Type Date Time Source
MUGM TAF 2022/05/24 07:03 UTC NOAA

TAF TAF MUGM 2407/2507 33008KT 9999 FEW030 BKN250 QNH2990INS
BECMG 2413/2415 09013KT 9999 FEW030 BKN250 QNH2994INS
BECMG 2418/2420 13013KT 9999 VCSH SCT030 BKN250 QNH2988INS
TEMPO 2418/2500 6000 -SHRA BR SCT015 BKN035
BECMG 2500/2502 06008KT 9999 VCSH SCT030 QNH2995INS T24/2411Z T31/2416Z FN00253

Example: see airport list